createdAt,value
2017-11-15T00:01:42.626Z,9.82
2017-11-15T00:04:09.469Z,12.07
2017-11-15T00:06:36.216Z,9.60
2017-11-15T00:09:02.968Z,8.95
2017-11-15T00:11:29.702Z,11.75
2017-11-15T00:13:56.441Z,15.05
2017-11-15T00:16:23.179Z,11.88
2017-11-15T00:18:49.900Z,13.13
2017-11-15T00:21:16.625Z,15.32
2017-11-15T00:23:43.376Z,10.38
2017-11-15T00:26:10.174Z,16.80
2017-11-15T00:28:36.907Z,13.25
2017-11-15T00:31:03.638Z,14.00
2017-11-15T00:33:30.421Z,9.88
2017-11-15T00:35:57.133Z,9.20
2017-11-15T00:38:23.905Z,11.88
2017-11-15T00:40:50.637Z,9.07
2017-11-15T00:43:17.382Z,10.65
2017-11-15T00:45:44.132Z,7.78
2017-11-15T00:48:10.894Z,10.00
2017-11-15T00:50:37.612Z,7.70
2017-11-15T00:53:04.380Z,10.25
2017-11-15T00:55:31.115Z,10.77
2017-11-15T00:57:57.852Z,10.10
2017-11-15T01:00:24.622Z,7.97
2017-11-15T01:02:51.356Z,9.60
2017-11-15T01:05:18.274Z,11.25
2017-11-15T01:07:44.998Z,11.82
2017-11-15T01:10:11.735Z,11.38
2017-11-15T01:12:38.464Z,9.90
2017-11-15T01:15:05.239Z,10.18
2017-11-15T01:17:31.972Z,12.52
2017-11-15T01:19:58.712Z,9.35
2017-11-15T01:22:25.435Z,12.40
2017-11-15T01:24:52.161Z,9.40
2017-11-15T01:27:18.894Z,12.15
2017-11-15T01:29:45.655Z,12.63
2017-11-15T01:32:12.418Z,10.45
2017-11-15T01:34:39.152Z,10.07
2017-11-15T01:37:05.955Z,9.70
2017-11-15T01:39:32.702Z,12.50
2017-11-15T01:41:59.432Z,13.88
2017-11-15T01:44:26.219Z,12.35
2017-11-15T01:46:52.993Z,12.10
2017-11-15T01:49:19.798Z,16.10
2017-11-15T01:51:46.559Z,17.15
2017-11-15T01:54:13.315Z,16.42
2017-11-15T01:56:40.099Z,18.67
2017-11-15T01:59:06.939Z,15.32
2017-11-15T02:01:37.573Z,12.95
2017-11-15T02:04:04.305Z,16.83
2017-11-15T02:06:31.102Z,15.65
2017-11-15T02:08:57.827Z,13.20
2017-11-15T02:11:24.586Z,17.65
2017-11-15T02:13:51.340Z,16.15
2017-11-15T02:16:18.089Z,17.17
2017-11-15T02:18:44.821Z,17.15
2017-11-15T02:21:11.583Z,17.50
2017-11-15T02:23:38.328Z,23.05
2017-11-15T02:26:05.087Z,17.92
2017-11-15T02:28:31.855Z,17.52
2017-11-15T02:30:58.620Z,15.75
2017-11-15T02:33:25.352Z,16.30
2017-11-15T02:35:52.121Z,17.45
2017-11-15T02:38:18.892Z,14.32
2017-11-15T02:40:45.631Z,18.08
2017-11-15T02:43:12.417Z,15.90
2017-11-15T02:45:39.171Z,15.15
2017-11-15T02:48:05.917Z,15.75
2017-11-15T02:50:32.677Z,16.55
2017-11-15T02:52:59.433Z,19.52
2017-11-15T02:55:26.164Z,14.95
2017-11-15T02:57:52.929Z,14.32
2017-11-15T03:00:19.688Z,16.33
2017-11-15T03:02:46.421Z,11.50
2017-11-15T03:05:13.183Z,15.82
2017-11-15T03:07:39.936Z,14.70
2017-11-15T03:10:06.672Z,17.25
2017-11-15T03:12:33.457Z,12.63
2017-11-15T03:15:00.228Z,13.85
2017-11-15T03:17:26.980Z,20.65
2017-11-15T03:19:53.877Z,18.70
2017-11-15T03:22:20.628Z,17.05
2017-11-15T03:24:47.389Z,15.20
2017-11-15T03:27:14.138Z,14.30
2017-11-15T03:29:40.947Z,17.35
2017-11-15T03:32:07.726Z,18.62
2017-11-15T03:34:34.485Z,16.48
2017-11-15T03:37:01.224Z,15.75
2017-11-15T03:39:27.947Z,15.85
2017-11-15T03:41:54.686Z,12.52
2017-11-15T03:44:21.407Z,11.68
2017-11-15T03:46:48.151Z,12.85
2017-11-15T03:49:14.901Z,14.63
2017-11-15T03:51:41.629Z,14.32
2017-11-15T03:54:08.367Z,12.85
2017-11-15T03:56:35.124Z,13.93
2017-11-15T03:59:01.882Z,17.17
2017-11-15T04:01:28.612Z,12.90
2017-11-15T04:03:55.388Z,15.90
2017-11-15T04:06:22.114Z,17.10
2017-11-15T04:08:48.868Z,13.45
2017-11-15T04:11:15.616Z,13.23
2017-11-15T04:13:42.331Z,9.57
2017-11-15T04:16:09.071Z,12.30
2017-11-15T04:18:35.893Z,11.70
2017-11-15T04:21:02.651Z,10.15
2017-11-15T04:23:29.380Z,11.63
2017-11-15T04:25:56.107Z,8.95
2017-11-15T04:28:22.894Z,11.60
2017-11-15T04:30:49.607Z,13.38
2017-11-15T04:33:16.356Z,13.93
2017-11-15T04:35:43.134Z,13.60
2017-11-15T04:38:09.847Z,11.88
2017-11-15T04:40:36.595Z,16.58
2017-11-15T04:43:03.340Z,10.65
2017-11-15T04:45:30.164Z,12.98
2017-11-15T04:47:56.925Z,11.25
2017-11-15T04:50:23.648Z,11.63
2017-11-15T04:52:50.399Z,11.00
2017-11-15T04:55:17.141Z,12.15
2017-11-15T04:57:43.870Z,12.05
2017-11-15T05:00:10.591Z,11.80
2017-11-15T05:02:37.316Z,11.90
2017-11-15T05:05:04.072Z,13.15
2017-11-15T05:07:30.791Z,12.73
2017-11-15T05:09:57.525Z,10.65
2017-11-15T05:12:24.279Z,10.73
2017-11-15T05:14:51.012Z,15.77
2017-11-15T05:17:17.739Z,12.95
2017-11-15T05:19:44.464Z,11.35
2017-11-15T05:22:11.202Z,11.93
2017-11-15T05:24:37.948Z,13.07
2017-11-15T05:27:04.687Z,11.38
2017-11-15T05:29:31.434Z,14.50
2017-11-15T05:31:58.188Z,14.95
2017-11-15T05:34:24.939Z,15.40
2017-11-15T05:36:51.680Z,17.90
2017-11-15T05:39:18.411Z,12.52
2017-11-15T05:41:45.171Z,13.05
2017-11-15T05:44:11.893Z,16.08
2017-11-15T05:46:38.697Z,13.48
2017-11-15T05:49:05.436Z,17.10
2017-11-15T05:51:32.156Z,11.68
2017-11-15T05:53:58.872Z,11.73
2017-11-15T05:56:25.620Z,13.57
2017-11-15T05:58:52.340Z,12.23
2017-11-15T06:01:19.076Z,15.85
2017-11-15T06:03:45.802Z,16.00
2017-11-15T06:06:12.538Z,11.15
2017-11-15T06:08:39.281Z,12.27
2017-11-15T06:11:06.088Z,9.95
2017-11-15T06:13:32.923Z,11.82
2017-11-15T06:15:59.577Z,11.30
2017-11-15T06:18:26.362Z,14.57
2017-11-15T06:20:53.035Z,13.65
2017-11-15T06:23:19.849Z,11.77
2017-11-15T06:25:46.659Z,12.95
2017-11-15T06:28:13.244Z,8.98
2017-11-15T06:30:40.120Z,12.85
2017-11-15T06:33:06.693Z,9.23
2017-11-15T06:35:33.461Z,8.05
2017-11-15T06:38:00.147Z,6.82
2017-11-15T06:40:26.870Z,11.70
2017-11-15T06:42:53.582Z,14.35
2017-11-15T06:45:20.295Z,13.18
2017-11-15T06:47:47.027Z,13.50
2017-11-15T06:50:13.748Z,13.02
2017-11-15T06:52:40.470Z,17.95
2017-11-15T06:55:07.203Z,19.83
2017-11-15T06:57:33.939Z,24.90
2017-11-15T07:00:00.673Z,20.40
2017-11-15T07:02:27.440Z,21.02
2017-11-15T07:04:54.161Z,23.20
2017-11-15T07:07:20.876Z,25.90
2017-11-15T07:09:47.597Z,43.97
2017-11-15T07:12:14.303Z,22.58
2017-11-15T07:14:41.014Z,24.70
2017-11-15T07:17:07.738Z,26.58
2017-11-15T07:19:34.460Z,23.17
2017-11-15T07:22:01.193Z,32.28
2017-11-15T07:24:27.904Z,28.40
2017-11-15T07:26:54.624Z,27.02
2017-11-15T07:29:21.358Z,22.13
2017-11-15T07:31:48.094Z,20.02
2017-11-15T07:34:14.824Z,22.85
2017-11-15T07:36:41.545Z,29.90
2017-11-15T07:39:08.269Z,30.60
2017-11-15T07:41:34.994Z,35.17
2017-11-15T07:44:01.749Z,33.13
2017-11-15T07:46:28.478Z,36.97
2017-11-15T07:48:55.197Z,28.98
2017-11-15T07:51:21.932Z,29.73
2017-11-15T07:53:48.660Z,27.17
2017-11-15T07:56:15.388Z,31.62
2017-11-15T07:58:42.112Z,27.62
2017-11-15T08:01:08.848Z,32.42
2017-11-15T08:03:35.566Z,30.98
2017-11-15T08:06:02.292Z,31.15
2017-11-15T08:08:29.033Z,22.23
2017-11-15T08:10:55.760Z,23.60
2017-11-15T08:13:22.502Z,25.92
2017-11-15T08:15:49.224Z,23.35
2017-11-15T08:18:15.968Z,27.83
2017-11-15T08:20:42.725Z,22.83
2017-11-15T08:23:09.467Z,20.45
2017-11-15T08:25:36.205Z,19.27
2017-11-15T08:28:02.964Z,23.12
2017-11-15T08:30:29.707Z,21.58
2017-11-15T08:32:56.436Z,18.30
2017-11-15T08:35:23.149Z,14.77
2017-11-15T08:37:49.859Z,13.60
2017-11-15T08:40:16.607Z,19.60
2017-11-15T08:42:43.357Z,17.70
2017-11-15T08:45:10.104Z,17.17
2017-11-15T08:47:37.605Z,18.95
2017-11-15T08:50:05.054Z,19.53
2017-11-15T08:52:31.835Z,24.00
2017-11-15T08:54:58.581Z,20.35
2017-11-15T08:57:25.324Z,23.13
2017-11-15T08:59:52.106Z,19.93
2017-11-15T09:02:18.824Z,27.37
2017-11-15T09:04:45.545Z,19.90
2017-11-15T09:07:12.272Z,21.10
2017-11-15T09:09:39.019Z,19.37
2017-11-15T09:12:05.761Z,30.93
2017-11-15T09:14:32.507Z,31.37
2017-11-15T09:16:59.238Z,27.83
2017-11-15T09:19:25.963Z,20.87
2017-11-15T09:21:52.675Z,18.73
2017-11-15T09:24:19.395Z,27.53
2017-11-15T09:26:46.126Z,20.60
2017-11-15T09:29:12.857Z,26.10
2017-11-15T09:31:39.572Z,19.23
2017-11-15T09:34:06.303Z,28.33
2017-11-15T09:36:33.024Z,18.23
2017-11-15T09:38:59.766Z,16.03
2017-11-15T09:41:26.483Z,18.83
2017-11-15T09:43:53.208Z,20.47
2017-11-15T09:46:19.936Z,23.23
2017-11-15T09:48:46.662Z,15.97
2017-11-15T09:51:13.404Z,17.20
2017-11-15T09:53:40.131Z,20.50
2017-11-15T09:56:06.854Z,24.80
2017-11-15T09:58:33.584Z,20.50
2017-11-15T10:01:00.300Z,17.90
2017-11-15T10:03:27.028Z,19.20
2017-11-15T10:05:53.739Z,23.53
2017-11-15T10:08:20.463Z,21.13
2017-11-15T10:10:47.182Z,19.20
2017-11-15T10:13:13.894Z,22.90
2017-11-15T10:15:40.625Z,21.00
2017-11-15T10:18:07.400Z,16.03
2017-11-15T10:20:34.124Z,14.90
2017-11-15T10:23:00.856Z,23.27
2017-11-15T10:25:27.579Z,19.00
2017-11-15T10:27:54.327Z,23.43
2017-11-15T10:30:21.048Z,19.97
2017-11-15T10:32:47.808Z,18.80
2017-11-15T10:35:14.528Z,20.33
2017-11-15T10:37:41.253Z,18.30
2017-11-15T10:40:08.058Z,13.90
2017-11-15T10:42:34.788Z,14.23
2017-11-15T10:45:01.503Z,15.50
2017-11-15T10:47:28.249Z,13.27
2017-11-15T10:49:54.990Z,13.50
2017-11-15T10:52:21.726Z,12.63
2017-11-15T10:54:48.472Z,12.97
2017-11-15T10:57:15.205Z,16.07
2017-11-15T10:59:41.923Z,14.00
2017-11-15T11:02:08.664Z,7.87
2017-11-15T11:04:35.429Z,12.70
2017-11-15T11:07:02.226Z,9.27
2017-11-15T11:09:28.964Z,9.03
2017-11-15T11:11:55.678Z,9.87
2017-11-15T11:14:22.412Z,10.80
2017-11-15T11:16:49.153Z,8.23
2017-11-15T11:19:15.875Z,9.53
2017-11-15T11:21:42.606Z,7.67
2017-11-15T11:24:09.338Z,7.80
2017-11-15T11:26:36.057Z,5.80
2017-11-15T11:29:02.829Z,7.83
2017-11-15T11:31:29.536Z,7.90
2017-11-15T11:33:56.259Z,9.60
2017-11-15T11:36:22.963Z,7.40
2017-11-15T11:38:49.673Z,8.70
2017-11-15T11:41:16.395Z,9.93
2017-11-15T11:43:43.131Z,10.03
2017-11-15T11:46:09.875Z,15.90
2017-11-15T11:48:36.579Z,8.17
2017-11-15T11:51:03.299Z,8.40
2017-11-15T11:53:30.034Z,10.00
2017-11-15T11:55:56.740Z,10.23
2017-11-15T11:58:23.456Z,11.20
2017-11-15T12:00:50.224Z,10.17
2017-11-15T12:03:16.925Z,8.53
2017-11-15T12:05:43.651Z,6.90
2017-11-15T12:08:10.363Z,8.70
2017-11-15T12:10:37.095Z,11.57
2017-11-15T12:13:03.825Z,10.63
2017-11-15T12:15:30.565Z,6.67
2017-11-15T12:17:57.265Z,9.63
2017-11-15T12:20:23.984Z,28.47
2017-11-15T12:22:50.739Z,13.80
2017-11-15T12:25:17.454Z,16.10
2017-11-15T12:27:44.221Z,6.77
2017-11-15T12:30:10.956Z,8.47
2017-11-15T12:32:37.677Z,11.17
2017-11-15T12:35:04.406Z,10.53
2017-11-15T12:37:31.144Z,10.50
2017-11-15T12:39:57.874Z,8.43
2017-11-15T12:42:24.624Z,8.10
2017-11-15T12:44:51.365Z,8.30
2017-11-15T12:47:18.091Z,8.93
2017-11-15T12:49:44.912Z,9.03
2017-11-15T12:52:11.640Z,8.83
2017-11-15T12:54:49.656Z,11.07
2017-11-15T13:00:15.958Z,7.10
2017-11-15T13:02:55.487Z,8.47
2017-11-15T13:05:34.403Z,12.63
2017-11-15T13:08:03.085Z,50.77
2017-11-15T13:13:41.546Z,13.77
2017-11-15T13:33:48.675Z,8.70
2017-11-15T13:36:22.209Z,11.50
2017-11-15T13:38:57.311Z,14.33
2017-11-15T13:41:44.744Z,9.23
2017-11-15T13:44:22.760Z,11.83
2017-11-15T13:47:05.045Z,14.93
2017-11-15T13:49:52.111Z,9.93
2017-11-15T13:52:35.630Z,9.20
2017-11-15T13:55:14.944Z,11.43
2017-11-15T13:57:42.929Z,7.50
2017-11-15T14:00:25.020Z,16.33
2017-11-15T14:03:12.652Z,10.30
2017-11-15T14:05:52.996Z,8.20
2017-11-15T14:08:40.822Z,16.20
2017-11-15T14:11:08.388Z,9.10
2017-11-15T14:13:56.162Z,9.20
2017-11-15T14:16:51.712Z,9.40
2017-11-15T14:19:31.564Z,10.57
2017-11-15T14:22:09.907Z,12.67
2017-11-15T14:24:47.504Z,9.47
2017-11-15T14:27:31.519Z,11.87
2017-11-15T14:29:58.320Z,8.30
2017-11-15T14:32:25.045Z,11.10
2017-11-15T14:34:51.771Z,9.20
2017-11-15T14:37:18.641Z,9.90
2017-11-15T14:39:45.389Z,10.27
2017-11-15T14:42:12.116Z,12.70
2017-11-15T14:44:38.823Z,10.90
2017-11-15T14:47:05.548Z,12.10
2017-11-15T14:49:32.263Z,10.27
2017-11-15T14:51:59.007Z,7.83
2017-11-15T14:54:25.713Z,9.67
2017-11-15T14:56:52.433Z,11.83
2017-11-15T14:59:19.141Z,16.53
2017-11-15T15:01:45.870Z,11.17
2017-11-15T15:04:12.592Z,8.03
2017-11-15T15:06:39.296Z,8.30
2017-11-15T15:09:06.000Z,19.50
2017-11-15T15:11:32.715Z,11.37
2017-11-15T15:13:59.482Z,11.00
2017-11-15T15:16:26.215Z,17.00
2017-11-15T15:18:53.028Z,11.10
2017-11-15T15:21:19.735Z,14.73
2017-11-15T15:23:46.462Z,13.90
2017-11-15T15:26:13.184Z,18.83
2017-11-15T15:28:39.988Z,15.27
2017-11-15T15:31:06.808Z,10.40
2017-11-15T15:33:33.528Z,12.10
2017-11-15T15:36:00.256Z,10.53
2017-11-15T15:38:26.954Z,8.80
2017-11-15T15:40:53.695Z,8.07
2017-11-15T15:43:20.492Z,13.37
2017-11-15T15:45:47.224Z,11.30
2017-11-15T15:48:13.928Z,11.95
2017-11-15T15:50:40.656Z,16.90
2017-11-15T15:53:07.369Z,10.37
2017-11-15T15:55:34.080Z,10.80
2017-11-15T15:58:00.799Z,11.43
2017-11-15T16:00:27.520Z,9.23
2017-11-15T16:02:54.261Z,14.70
2017-11-15T16:05:20.994Z,9.60
2017-11-15T16:07:47.727Z,10.90
2017-11-15T16:10:14.454Z,12.67
2017-11-15T16:12:41.200Z,12.40
2017-11-15T16:15:07.913Z,9.90
2017-11-15T16:17:34.619Z,14.90
2017-11-15T16:20:01.336Z,9.97
2017-11-15T16:22:28.065Z,12.10
2017-11-15T16:24:54.788Z,11.43
2017-11-15T16:27:21.522Z,8.70
2017-11-15T16:29:48.243Z,11.17
2017-11-15T16:32:14.946Z,13.13
2017-11-15T16:34:41.671Z,10.63
2017-11-15T16:37:08.388Z,10.40
2017-11-15T16:39:35.103Z,14.20
2017-11-15T16:42:01.829Z,10.80
2017-11-15T16:44:28.560Z,9.77
2017-11-15T16:46:55.262Z,9.13
2017-11-15T16:49:22.004Z,13.80
2017-11-15T16:51:48.756Z,11.00
2017-11-15T16:54:15.564Z,10.50
2017-11-15T16:56:42.286Z,11.43
2017-11-15T16:59:09.024Z,10.57
2017-11-15T17:01:35.743Z,17.40
2017-11-15T17:04:02.503Z,11.30
2017-11-15T17:06:29.218Z,14.73
2017-11-15T17:08:55.947Z,17.53
2017-11-15T17:11:22.656Z,13.17
2017-11-15T17:13:49.429Z,12.77
2017-11-15T17:16:16.135Z,10.03
2017-11-15T17:18:42.940Z,16.27
2017-11-15T17:21:09.699Z,15.10
2017-11-15T17:23:36.428Z,16.03
2017-11-15T17:26:03.172Z,16.10
2017-11-15T17:28:29.892Z,13.53
2017-11-15T17:30:56.634Z,10.57
2017-11-15T17:33:23.368Z,15.10
2017-11-15T17:35:50.105Z,12.60
2017-11-15T17:38:16.840Z,14.63
2017-11-15T17:40:43.606Z,15.20
2017-11-15T17:43:10.350Z,16.93
2017-11-15T17:45:37.108Z,17.87
2017-11-15T17:48:03.877Z,20.37
2017-11-15T17:50:30.646Z,15.70
2017-11-15T17:52:57.391Z,14.40
2017-11-15T17:55:24.133Z,13.30
2017-11-15T17:57:50.870Z,18.63
2017-11-15T18:00:17.600Z,17.67
2017-11-15T18:02:44.800Z,18.50
2017-11-15T18:05:11.570Z,25.50
2017-11-15T18:07:38.301Z,19.90
2017-11-15T18:10:05.124Z,20.10
2017-11-15T18:12:31.834Z,23.00
2017-11-15T18:14:58.568Z,23.37
2017-11-15T18:17:25.495Z,21.53
2017-11-15T18:19:52.222Z,23.50
2017-11-15T18:22:22.479Z,20.97
2017-11-15T18:25:03.543Z,24.90
2017-11-15T18:27:38.723Z,20.77
2017-11-15T18:30:05.461Z,24.53
2017-11-15T18:32:32.191Z,30.53
2017-11-15T18:34:58.925Z,18.10
2017-11-15T18:37:25.652Z,22.67
2017-11-15T18:39:52.392Z,28.17
2017-11-15T18:42:19.130Z,35.60
2017-11-15T18:44:45.869Z,24.07
2017-11-15T18:47:12.615Z,28.43
2017-11-15T18:49:39.349Z,22.80
2017-11-15T18:52:06.115Z,27.20
2017-11-15T18:54:32.836Z,23.50
2017-11-15T18:56:59.574Z,28.13
2017-11-15T18:59:26.312Z,32.70
2017-11-15T19:01:53.050Z,26.80
2017-11-15T19:04:19.764Z,25.47
2017-11-15T19:06:46.488Z,23.40
2017-11-15T19:09:13.213Z,17.70
2017-11-15T19:11:39.947Z,27.00
2017-11-15T19:14:06.690Z,26.43
2017-11-15T19:16:33.489Z,22.53
2017-11-15T19:19:00.207Z,25.37
2017-11-15T19:21:26.980Z,23.50
2017-11-15T19:23:53.702Z,26.87
2017-11-15T19:26:20.431Z,25.97
2017-11-15T19:28:47.147Z,22.37
2017-11-15T19:31:13.874Z,20.53
2017-11-15T19:33:40.598Z,19.77
2017-11-15T19:36:07.319Z,31.43
2017-11-15T19:38:34.059Z,25.50
2017-11-15T19:41:06.989Z,27.20
2017-11-15T19:43:52.450Z,24.40
2017-11-15T19:46:25.345Z,26.53
2017-11-15T19:48:58.846Z,27.33
2017-11-15T19:51:37.244Z,26.70
2017-11-15T19:54:15.236Z,23.53
2017-11-15T19:56:53.885Z,29.07
2017-11-15T19:59:33.537Z,25.23
2017-11-15T20:02:10.563Z,26.87
2017-11-15T20:04:38.574Z,27.70
2017-11-15T20:07:14.536Z,27.93
2017-11-15T20:09:56.093Z,30.03
2017-11-15T20:12:38.330Z,28.20
2017-11-15T20:15:05.063Z,23.73
2017-11-15T20:17:32.192Z,26.20
2017-11-15T20:19:58.940Z,23.83
2017-11-15T20:22:25.677Z,26.63
2017-11-15T20:24:52.404Z,25.67
2017-11-15T20:27:19.250Z,31.73
2017-11-15T20:29:45.983Z,20.87
2017-11-15T20:32:12.712Z,24.10
2017-11-15T20:34:39.464Z,28.57
2017-11-15T20:37:06.222Z,23.57
2017-11-15T20:39:32.984Z,24.27
2017-11-15T20:41:59.728Z,30.47
2017-11-15T20:44:26.445Z,25.63
2017-11-15T20:46:53.186Z,28.13
2017-11-15T20:49:19.959Z,22.00
2017-11-15T20:51:46.688Z,25.23
2017-11-15T20:54:13.412Z,28.63
2017-11-15T20:56:40.179Z,35.07
2017-11-15T20:59:06.930Z,29.60
2017-11-15T21:01:33.664Z,30.23
2017-11-15T21:04:00.647Z,24.03
2017-11-15T21:06:27.518Z,31.67
2017-11-15T21:08:55.486Z,37.73
2017-11-15T21:11:22.256Z,25.70
2017-11-15T21:13:49.167Z,29.77
2017-11-15T21:16:15.919Z,34.83
2017-11-15T21:18:42.718Z,28.90
2017-11-15T21:21:09.466Z,27.67
2017-11-15T21:23:36.202Z,30.73
2017-11-15T21:26:02.951Z,23.50
2017-11-15T21:28:29.688Z,28.80
2017-11-15T21:30:56.420Z,23.37
2017-11-15T21:33:23.215Z,26.57
2017-11-15T21:35:49.937Z,27.03
2017-11-15T21:38:16.678Z,21.90
2017-11-15T21:40:43.433Z,27.70
2017-11-15T21:43:10.163Z,29.30
2017-11-15T21:45:39.275Z,32.43
2017-11-15T21:48:09.694Z,28.00
2017-11-15T21:50:36.421Z,29.10
2017-11-15T21:53:03.162Z,35.63
2017-11-15T21:55:29.930Z,30.57
2017-11-15T21:57:56.687Z,27.50
2017-11-15T22:00:23.406Z,24.80
2017-11-15T22:02:50.241Z,29.00
2017-11-15T22:05:16.985Z,27.97
2017-11-15T22:07:43.718Z,28.20
2017-11-15T22:10:10.586Z,25.17
2017-11-15T22:12:37.342Z,21.30
2017-11-15T22:15:04.102Z,27.80
2017-11-15T22:17:30.868Z,24.90
2017-11-15T22:19:57.604Z,23.37
2017-11-15T22:22:24.326Z,29.20
2017-11-15T22:24:51.071Z,31.27
2017-11-15T22:27:17.800Z,27.47
2017-11-15T22:29:44.525Z,27.70
2017-11-15T22:32:11.263Z,30.80
2017-11-15T22:34:38.024Z,30.90
2017-11-15T22:37:04.781Z,24.73
2017-11-15T22:39:31.532Z,25.37
2017-11-15T22:41:58.260Z,31.07
2017-11-15T22:44:25.021Z,26.97
2017-11-15T22:46:51.798Z,26.03
2017-11-15T22:49:18.519Z,33.97
2017-11-15T22:51:45.245Z,23.40
2017-11-15T22:54:12.043Z,28.67
2017-11-15T22:56:38.773Z,29.13
2017-11-15T22:59:05.504Z,28.53
2017-11-15T23:01:32.316Z,29.00
2017-11-15T23:03:59.047Z,34.57
2017-11-15T23:06:25.892Z,19.63
2017-11-15T23:08:52.654Z,22.63
2017-11-15T23:11:19.381Z,28.80
2017-11-15T23:13:46.110Z,29.53
2017-11-15T23:16:12.850Z,31.57
2017-11-15T23:18:39.578Z,24.33
2017-11-15T23:21:06.303Z,25.40
2017-11-15T23:23:33.058Z,27.23
2017-11-15T23:25:59.793Z,26.17
2017-11-15T23:28:26.529Z,25.87
2017-11-15T23:30:53.525Z,29.57
2017-11-15T23:33:20.255Z,24.90
2017-11-15T23:35:46.976Z,28.33
2017-11-15T23:38:13.728Z,24.90
2017-11-15T23:40:40.458Z,21.70
2017-11-15T23:43:07.312Z,23.33
2017-11-15T23:45:34.062Z,25.93
2017-11-15T23:48:00.792Z,21.40
2017-11-15T23:50:27.521Z,26.50
2017-11-15T23:52:54.257Z,28.30
2017-11-15T23:55:20.988Z,28.07
2017-11-15T23:57:47.743Z,25.17
